sensor_id;sensor_type;location;lat;lon;timestamp;P1;durP1;ratioP1;P2;durP2;ratioP2
16354;SDS011;8287;51.644;8.494;2023-04-03T00:00:37;3.30;;;1.42;;
16354;SDS011;8287;51.644;8.494;2023-04-03T00:03:04;1.38;;;1.27;;
16354;SDS011;8287;51.644;8.494;2023-04-03T00:05:30;1.45;;;1.10;;
16354;SDS011;8287;51.644;8.494;2023-04-03T00:07:57;2.92;;;0.95;;
16354;SDS011;8287;51.644;8.494;2023-04-03T00:10:24;2.63;;;1.08;;
16354;SDS011;8287;51.644;8.494;2023-04-03T00:12:52;1.30;;;1.02;;
16354;SDS011;8287;51.644;8.494;2023-04-03T00:15:18;0.93;;;0.80;;
16354;SDS011;8287;51.644;8.494;2023-04-03T00:17:45;3.58;;;1.20;;
16354;SDS011;8287;51.644;8.494;2023-04-03T00:20:12;2.05;;;1.10;;
16354;SDS011;8287;51.644;8.494;2023-04-03T00:22:39;2.63;;;1.45;;
16354;SDS011;8287;51.644;8.494;2023-04-03T00:25:06;2.83;;;1.35;;
16354;SDS011;8287;51.644;8.494;2023-04-03T00:27:35;2.67;;;1.20;;
16354;SDS011;8287;51.644;8.494;2023-04-03T00:30:04;2.05;;;1.15;;
16354;SDS011;8287;51.644;8.494;2023-04-03T00:32:32;4.95;;;1.23;;
16354;SDS011;8287;51.644;8.494;2023-04-03T00:34:58;2.92;;;1.60;;
16354;SDS011;8287;51.644;8.494;2023-04-03T00:37:25;1.85;;;1.13;;
16354;SDS011;8287;51.644;8.494;2023-04-03T00:39:52;1.58;;;1.05;;
16354;SDS011;8287;51.644;8.494;2023-04-03T00:42:19;2.05;;;0.95;;
16354;SDS011;8287;51.644;8.494;2023-04-03T00:47:51;2.00;;;1.25;;
16354;SDS011;8287;51.644;8.494;2023-04-03T00:50:18;2.42;;;1.10;;
16354;SDS011;8287;51.644;8.494;2023-04-03T00:52:45;2.28;;;1.10;;
16354;SDS011;8287;51.644;8.494;2023-04-03T00:55:14;3.60;;;1.00;;
16354;SDS011;8287;51.644;8.494;2023-04-03T00:57:42;2.92;;;1.00;;
16354;SDS011;8287;51.644;8.494;2023-04-03T01:00:10;3.70;;;1.27;;
16354;SDS011;8287;51.644;8.494;2023-04-03T01:02:40;2.10;;;1.15;;
16354;SDS011;8287;51.644;8.494;2023-04-03T01:05:06;3.42;;;1.20;;
16354;SDS011;8287;51.644;8.494;2023-04-03T01:07:34;4.32;;;1.23;;
16354;SDS011;8287;51.644;8.494;2023-04-03T01:10:03;1.48;;;1.00;;
16354;SDS011;8287;51.644;8.494;2023-04-03T01:12:34;2.58;;;1.10;;
16354;SDS011;8287;51.644;8.494;2023-04-03T01:15:03;3.97;;;0.90;;
16354;SDS011;8287;51.644;8.494;2023-04-03T01:17:32;4.38;;;1.08;;
16354;SDS011;8287;51.644;8.494;2023-04-03T01:23:10;1.30;;;0.90;;
16354;SDS011;8287;51.644;8.494;2023-04-03T01:25:44;2.30;;;1.05;;
16354;SDS011;8287;51.644;8.494;2023-04-03T01:28:13;5.50;;;1.10;;
16354;SDS011;8287;51.644;8.494;2023-04-03T01:30:43;6.22;;;1.20;;
16354;SDS011;8287;51.644;8.494;2023-04-03T01:33:16;2.15;;;1.10;;
16354;SDS011;8287;51.644;8.494;2023-04-03T01:35:43;2.75;;;1.48;;
16354;SDS011;8287;51.644;8.494;2023-04-03T01:38:09;3.42;;;1.08;;
16354;SDS011;8287;51.644;8.494;2023-04-03T01:40:36;2.83;;;1.27;;
16354;SDS011;8287;51.644;8.494;2023-04-03T01:43:03;2.00;;;1.23;;
16354;SDS011;8287;51.644;8.494;2023-04-03T01:45:29;4.25;;;1.17;;
16354;SDS011;8287;51.644;8.494;2023-04-03T01:47:56;3.78;;;1.40;;
16354;SDS011;8287;51.644;8.494;2023-04-03T01:50:24;2.65;;;0.88;;
16354;SDS011;8287;51.644;8.494;2023-04-03T01:52:51;5.10;;;1.35;;
16354;SDS011;8287;51.644;8.494;2023-04-03T01:55:17;4.95;;;1.17;;
16354;SDS011;8287;51.644;8.494;2023-04-03T01:57:44;1.40;;;0.98;;
16354;SDS011;8287;51.644;8.494;2023-04-03T02:00:11;4.18;;;1.50;;
16354;SDS011;8287;51.644;8.494;2023-04-03T02:02:38;2.00;;;0.90;;
16354;SDS011;8287;51.644;8.494;2023-04-03T02:05:05;1.75;;;1.17;;
16354;SDS011;8287;51.644;8.494;2023-04-03T02:07:34;4.55;;;1.58;;
16354;SDS011;8287;51.644;8.494;2023-04-03T02:10:01;3.05;;;1.38;;
16354;SDS011;8287;51.644;8.494;2023-04-03T02:12:27;3.35;;;1.23;;
16354;SDS011;8287;51.644;8.494;2023-04-03T02:14:54;4.20;;;1.30;;
16354;SDS011;8287;51.644;8.494;2023-04-03T02:17:21;2.28;;;0.90;;
16354;SDS011;8287;51.644;8.494;2023-04-03T02:19:47;5.13;;;1.48;;
16354;SDS011;8287;51.644;8.494;2023-04-03T02:22:14;3.53;;;1.70;;
16354;SDS011;8287;51.644;8.494;2023-04-03T02:24:42;3.10;;;1.23;;
16354;SDS011;8287;51.644;8.494;2023-04-03T02:27:09;2.92;;;1.15;;
16354;SDS011;8287;51.644;8.494;2023-04-03T02:29:36;5.47;;;1.17;;
16354;SDS011;8287;51.644;8.494;2023-04-03T02:32:02;3.15;;;1.25;;
16354;SDS011;8287;51.644;8.494;2023-04-03T02:34:29;3.53;;;1.42;;
16354;SDS011;8287;51.644;8.494;2023-04-03T02:36:56;3.10;;;1.50;;
16354;SDS011;8287;51.644;8.494;2023-04-03T02:39:23;5.78;;;1.50;;
16354;SDS011;8287;51.644;8.494;2023-04-03T02:41:51;2.58;;;1.63;;
16354;SDS011;8287;51.644;8.494;2023-04-03T02:44:17;2.58;;;1.45;;
16354;SDS011;8287;51.644;8.494;2023-04-03T02:46:44;1.77;;;1.20;;
16354;SDS011;8287;51.644;8.494;2023-04-03T02:49:11;4.80;;;1.58;;
16354;SDS011;8287;51.644;8.494;2023-04-03T02:51:38;2.88;;;1.50;;
16354;SDS011;8287;51.644;8.494;2023-04-03T02:54:04;6.63;;;1.25;;
16354;SDS011;8287;51.644;8.494;2023-04-03T02:56:31;5.53;;;2.08;;
16354;SDS011;8287;51.644;8.494;2023-04-03T02:58:59;3.70;;;1.45;;
16354;SDS011;8287;51.644;8.494;2023-04-03T03:01:26;3.60;;;1.52;;
16354;SDS011;8287;51.644;8.494;2023-04-03T03:03:56;3.58;;;2.00;;
16354;SDS011;8287;51.644;8.494;2023-04-03T03:06:23;4.95;;;2.40;;
16354;SDS011;8287;51.644;8.494;2023-04-03T03:08:49;5.15;;;4.60;;
16354;SDS011;8287;51.644;8.494;2023-04-03T03:11:16;6.00;;;5.18;;
16354;SDS011;8287;51.644;8.494;2023-04-03T03:13:43;6.25;;;4.38;;
16354;SDS011;8287;51.644;8.494;2023-04-03T03:16:11;4.55;;;3.20;;
16354;SDS011;8287;51.644;8.494;2023-04-03T03:18:38;4.28;;;2.95;;
16354;SDS011;8287;51.644;8.494;2023-04-03T03:21:05;3.58;;;2.25;;
16354;SDS011;8287;51.644;8.494;2023-04-03T03:23:32;8.98;;;2.38;;
16354;SDS011;8287;51.644;8.494;2023-04-03T03:25:59;4.22;;;2.13;;
16354;SDS011;8287;51.644;8.494;2023-04-03T03:28:27;3.65;;;2.13;;
16354;SDS011;8287;51.644;8.494;2023-04-03T03:30:54;3.78;;;1.90;;
16354;SDS011;8287;51.644;8.494;2023-04-03T03:33:22;5.60;;;2.15;;
16354;SDS011;8287;51.644;8.494;2023-04-03T03:35:50;4.80;;;1.90;;
16354;SDS011;8287;51.644;8.494;2023-04-03T03:38:18;3.60;;;2.05;;
16354;SDS011;8287;51.644;8.494;2023-04-03T03:40:46;2.72;;;1.67;;
16354;SDS011;8287;51.644;8.494;2023-04-03T03:43:13;3.10;;;2.10;;
16354;SDS011;8287;51.644;8.494;2023-04-03T03:45:39;3.75;;;2.15;;
16354;SDS011;8287;51.644;8.494;2023-04-03T03:48:06;1.35;;;1.20;;
16354;SDS011;8287;51.644;8.494;2023-04-03T03:50:34;3.95;;;1.88;;
16354;SDS011;8287;51.644;8.494;2023-04-03T03:53:01;3.03;;;2.05;;
16354;SDS011;8287;51.644;8.494;2023-04-03T03:55:27;6.00;;;2.05;;
16354;SDS011;8287;51.644;8.494;2023-04-03T03:57:54;5.47;;;2.05;;
16354;SDS011;8287;51.644;8.494;2023-04-03T04:00:21;4.78;;;2.40;;
16354;SDS011;8287;51.644;8.494;2023-04-03T04:02:47;3.15;;;1.85;;
16354;SDS011;8287;51.644;8.494;2023-04-03T04:05:14;2.33;;;1.92;;
16354;SDS011;8287;51.644;8.494;2023-04-03T04:07:42;3.53;;;2.00;;
16354;SDS011;8287;51.644;8.494;2023-04-03T04:10:09;3.50;;;2.05;;
16354;SDS011;8287;51.644;8.494;2023-04-03T04:12:36;5.28;;;1.73;;
16354;SDS011;8287;51.644;8.494;2023-04-03T04:15:02;6.05;;;2.00;;
16354;SDS011;8287;51.644;8.494;2023-04-03T04:17:29;5.10;;;2.13;;
16354;SDS011;8287;51.644;8.494;2023-04-03T04:19:56;4.07;;;2.45;;
16354;SDS011;8287;51.644;8.494;2023-04-03T04:22:23;6.38;;;2.85;;
16354;SDS011;8287;51.644;8.494;2023-04-03T04:24:51;5.97;;;4.32;;
16354;SDS011;8287;51.644;8.494;2023-04-03T04:27:17;11.85;;;5.72;;
16354;SDS011;8287;51.644;8.494;2023-04-03T04:29:44;31.98;;;16.92;;
16354;SDS011;8287;51.644;8.494;2023-04-03T04:32:11;46.10;;;22.02;;
16354;SDS011;8287;51.644;8.494;2023-04-03T04:34:37;29.60;;;14.52;;
16354;SDS011;8287;51.644;8.494;2023-04-03T04:37:04;21.00;;;9.77;;
16354;SDS011;8287;51.644;8.494;2023-04-03T04:39:31;14.07;;;7.32;;
16354;SDS011;8287;51.644;8.494;2023-04-03T04:41:59;8.38;;;4.32;;
16354;SDS011;8287;51.644;8.494;2023-04-03T04:44:25;5.45;;;3.88;;
16354;SDS011;8287;51.644;8.494;2023-04-03T04:46:52;9.75;;;6.68;;
16354;SDS011;8287;51.644;8.494;2023-04-03T04:49:18;10.35;;;8.65;;
16354;SDS011;8287;51.644;8.494;2023-04-03T04:51:45;11.65;;;8.95;;
16354;SDS011;8287;51.644;8.494;2023-04-03T04:54:12;10.48;;;8.73;;
16354;SDS011;8287;51.644;8.494;2023-04-03T04:56:38;11.50;;;8.70;;
16354;SDS011;8287;51.644;8.494;2023-04-03T04:59:06;8.15;;;7.15;;
16354;SDS011;8287;51.644;8.494;2023-04-03T05:01:33;9.98;;;6.32;;
16354;SDS011;8287;51.644;8.494;2023-04-03T05:04:00;7.57;;;4.47;;
16354;SDS011;8287;51.644;8.494;2023-04-03T05:06:27;4.95;;;2.97;;
16354;SDS011;8287;51.644;8.494;2023-04-03T05:08:55;5.30;;;3.35;;
16354;SDS011;8287;51.644;8.494;2023-04-03T05:11:21;5.60;;;1.83;;
16354;SDS011;8287;51.644;8.494;2023-04-03T05:13:48;6.70;;;3.58;;
16354;SDS011;8287;51.644;8.494;2023-04-03T05:16:16;14.13;;;8.73;;
16354;SDS011;8287;51.644;8.494;2023-04-03T05:18:43;18.88;;;8.60;;
16354;SDS011;8287;51.644;8.494;2023-04-03T05:21:09;16.70;;;9.70;;
16354;SDS011;8287;51.644;8.494;2023-04-03T05:23:36;15.90;;;10.43;;
16354;SDS011;8287;51.644;8.494;2023-04-03T05:26:02;18.73;;;8.35;;
16354;SDS011;8287;51.644;8.494;2023-04-03T05:28:29;10.77;;;6.28;;
16354;SDS011;8287;51.644;8.494;2023-04-03T05:30:56;6.82;;;3.78;;
16354;SDS011;8287;51.644;8.494;2023-04-03T05:33:25;9.35;;;3.80;;
16354;SDS011;8287;51.644;8.494;2023-04-03T05:35:52;8.68;;;4.85;;
16354;SDS011;8287;51.644;8.494;2023-04-03T05:38:19;6.72;;;4.30;;
16354;SDS011;8287;51.644;8.494;2023-04-03T05:40:46;7.20;;;5.90;;
16354;SDS011;8287;51.644;8.494;2023-04-03T05:43:12;9.43;;;7.18;;
16354;SDS011;8287;51.644;8.494;2023-04-03T05:45:39;10.65;;;5.32;;
16354;SDS011;8287;51.644;8.494;2023-04-03T05:48:07;10.32;;;4.50;;
16354;SDS011;8287;51.644;8.494;2023-04-03T05:50:35;5.93;;;4.90;;
16354;SDS011;8287;51.644;8.494;2023-04-03T05:53:06;5.80;;;3.35;;
16354;SDS011;8287;51.644;8.494;2023-04-03T05:55:40;6.25;;;2.25;;
16354;SDS011;8287;51.644;8.494;2023-04-03T05:58:07;3.78;;;1.73;;
16354;SDS011;8287;51.644;8.494;2023-04-03T06:00:33;3.38;;;1.30;;
16354;SDS011;8287;51.644;8.494;2023-04-03T06:03:00;3.38;;;1.92;;
16354;SDS011;8287;51.644;8.494;2023-04-03T06:05:27;3.33;;;2.08;;
16354;SDS011;8287;51.644;8.494;2023-04-03T06:07:55;3.60;;;1.70;;
16354;SDS011;8287;51.644;8.494;2023-04-03T06:10:22;4.00;;;1.67;;
16354;SDS011;8287;51.644;8.494;2023-04-03T06:12:49;5.85;;;2.50;;
16354;SDS011;8287;51.644;8.494;2023-04-03T06:15:15;10.35;;;4.70;;
16354;SDS011;8287;51.644;8.494;2023-04-03T06:17:42;15.25;;;6.07;;
16354;SDS011;8287;51.644;8.494;2023-04-03T06:20:09;3.40;;;2.05;;
16354;SDS011;8287;51.644;8.494;2023-04-03T06:22:37;7.32;;;1.73;;
16354;SDS011;8287;51.644;8.494;2023-04-03T06:25:06;4.35;;;1.70;;
16354;SDS011;8287;51.644;8.494;2023-04-03T06:27:34;7.85;;;1.80;;
16354;SDS011;8287;51.644;8.494;2023-04-03T06:30:00;6.82;;;1.73;;
16354;SDS011;8287;51.644;8.494;2023-04-03T06:32:27;2.90;;;1.40;;
16354;SDS011;8287;51.644;8.494;2023-04-03T06:34:54;5.03;;;1.63;;
16354;SDS011;8287;51.644;8.494;2023-04-03T06:37:22;3.55;;;1.33;;
16354;SDS011;8287;51.644;8.494;2023-04-03T06:39:51;5.78;;;2.20;;
16354;SDS011;8287;51.644;8.494;2023-04-03T06:42:19;3.35;;;1.27;;
16354;SDS011;8287;51.644;8.494;2023-04-03T06:44:46;4.22;;;1.45;;
16354;SDS011;8287;51.644;8.494;2023-04-03T06:47:13;5.35;;;1.50;;
16354;SDS011;8287;51.644;8.494;2023-04-03T06:49:40;5.72;;;2.10;;
16354;SDS011;8287;51.644;8.494;2023-04-03T06:52:07;3.08;;;1.63;;
16354;SDS011;8287;51.644;8.494;2023-04-03T06:54:35;6.10;;;1.70;;
16354;SDS011;8287;51.644;8.494;2023-04-03T06:57:01;1.60;;;1.38;;
16354;SDS011;8287;51.644;8.494;2023-04-03T06:59:29;4.45;;;1.98;;
16354;SDS011;8287;51.644;8.494;2023-04-03T07:01:56;10.25;;;1.60;;
16354;SDS011;8287;51.644;8.494;2023-04-03T07:04:23;3.88;;;1.80;;
16354;SDS011;8287;51.644;8.494;2023-04-03T07:06:50;1.67;;;1.25;;
16354;SDS011;8287;51.644;8.494;2023-04-03T07:09:17;4.53;;;1.50;;
16354;SDS011;8287;51.644;8.494;2023-04-03T07:11:44;3.28;;;1.42;;
16354;SDS011;8287;51.644;8.494;2023-04-03T07:14:11;4.18;;;1.50;;
16354;SDS011;8287;51.644;8.494;2023-04-03T07:16:38;4.15;;;1.27;;
16354;SDS011;8287;51.644;8.494;2023-04-03T07:19:05;3.70;;;1.20;;
16354;SDS011;8287;51.644;8.494;2023-04-03T07:21:33;1.75;;;1.10;;
16354;SDS011;8287;51.644;8.494;2023-04-03T07:24:00;3.72;;;1.50;;
16354;SDS011;8287;51.644;8.494;2023-04-03T07:26:27;1.77;;;1.13;;
16354;SDS011;8287;51.644;8.494;2023-04-03T07:28:53;3.83;;;1.60;;
16354;SDS011;8287;51.644;8.494;2023-04-03T07:31:20;2.50;;;1.08;;
16354;SDS011;8287;51.644;8.494;2023-04-03T07:33:48;2.60;;;1.20;;
16354;SDS011;8287;51.644;8.494;2023-04-03T07:36:15;1.80;;;1.35;;
16354;SDS011;8287;51.644;8.494;2023-04-03T07:38:44;5.90;;;1.50;;
16354;SDS011;8287;51.644;8.494;2023-04-03T07:41:11;2.75;;;1.50;;
16354;SDS011;8287;51.644;8.494;2023-04-03T07:43:40;2.22;;;1.20;;
16354;SDS011;8287;51.644;8.494;2023-04-03T07:46:07;3.15;;;1.10;;
16354;SDS011;8287;51.644;8.494;2023-04-03T07:48:34;1.85;;;1.05;;
16354;SDS011;8287;51.644;8.494;2023-04-03T07:51:03;3.55;;;1.35;;
16354;SDS011;8287;51.644;8.494;2023-04-03T07:53:31;6.85;;;1.60;;
16354;SDS011;8287;51.644;8.494;2023-04-03T07:55:58;2.70;;;1.23;;
16354;SDS011;8287;51.644;8.494;2023-04-03T07:58:25;2.55;;;1.02;;
16354;SDS011;8287;51.644;8.494;2023-04-03T08:00:51;3.50;;;1.50;;
16354;SDS011;8287;51.644;8.494;2023-04-03T08:03:18;5.45;;;1.75;;
16354;SDS011;8287;51.644;8.494;2023-04-03T08:05:47;2.47;;;1.30;;
16354;SDS011;8287;51.644;8.494;2023-04-03T08:08:16;2.95;;;1.55;;
16354;SDS011;8287;51.644;8.494;2023-04-03T08:10:47;3.38;;;1.55;;
16354;SDS011;8287;51.644;8.494;2023-04-03T08:13:15;2.88;;;1.05;;
16354;SDS011;8287;51.644;8.494;2023-04-03T08:15:41;5.13;;;1.20;;
16354;SDS011;8287;51.644;8.494;2023-04-03T08:18:08;3.25;;;1.02;;
16354;SDS011;8287;51.644;8.494;2023-04-03T08:20:35;2.03;;;1.08;;
16354;SDS011;8287;51.644;8.494;2023-04-03T08:23:02;1.65;;;1.15;;
16354;SDS011;8287;51.644;8.494;2023-04-03T08:25:30;2.58;;;1.40;;
16354;SDS011;8287;51.644;8.494;2023-04-03T08:27:56;2.13;;;1.20;;
16354;SDS011;8287;51.644;8.494;2023-04-03T08:30:23;2.50;;;1.17;;
16354;SDS011;8287;51.644;8.494;2023-04-03T08:32:50;6.60;;;1.30;;
16354;SDS011;8287;51.644;8.494;2023-04-03T08:35:16;2.53;;;0.70;;
16354;SDS011;8287;51.644;8.494;2023-04-03T08:37:44;1.40;;;0.90;;
16354;SDS011;8287;51.644;8.494;2023-04-03T08:40:13;1.60;;;0.63;;
16354;SDS011;8287;51.644;8.494;2023-04-03T08:42:45;3.35;;;0.90;;
16354;SDS011;8287;51.644;8.494;2023-04-03T08:45:21;0.82;;;0.50;;
16354;SDS011;8287;51.644;8.494;2023-04-03T08:47:55;2.88;;;1.20;;
16354;SDS011;8287;51.644;8.494;2023-04-03T08:50:31;1.50;;;1.00;;
16354;SDS011;8287;51.644;8.494;2023-04-03T08:53:02;3.83;;;0.90;;
16354;SDS011;8287;51.644;8.494;2023-04-03T08:55:32;3.10;;;0.90;;
16354;SDS011;8287;51.644;8.494;2023-04-03T08:58:02;2.17;;;0.70;;
16354;SDS011;8287;51.644;8.494;2023-04-03T09:00:32;2.58;;;0.90;;
16354;SDS011;8287;51.644;8.494;2023-04-03T09:03:10;3.70;;;1.25;;
16354;SDS011;8287;51.644;8.494;2023-04-03T09:05:39;2.15;;;0.80;;
16354;SDS011;8287;51.644;8.494;2023-04-03T09:08:12;2.75;;;0.80;;
16354;SDS011;8287;51.644;8.494;2023-04-03T09:10:45;1.50;;;0.93;;
16354;SDS011;8287;51.644;8.494;2023-04-03T09:13:13;2.58;;;0.55;;
16354;SDS011;8287;51.644;8.494;2023-04-03T09:15:51;2.10;;;0.80;;
16354;SDS011;8287;51.644;8.494;2023-04-03T09:18:19;2.22;;;0.98;;
16354;SDS011;8287;51.644;8.494;2023-04-03T09:20:49;1.42;;;0.70;;
16354;SDS011;8287;51.644;8.494;2023-04-03T09:23:24;1.95;;;1.27;;
16354;SDS011;8287;51.644;8.494;2023-04-03T09:25:57;3.05;;;0.98;;
16354;SDS011;8287;51.644;8.494;2023-04-03T09:28:31;0.88;;;0.70;;
16354;SDS011;8287;51.644;8.494;2023-04-03T09:31:01;0.60;;;0.55;;
16354;SDS011;8287;51.644;8.494;2023-04-03T09:33:35;2.05;;;0.90;;
16354;SDS011;8287;51.644;8.494;2023-04-03T09:36:02;0.75;;;0.73;;
16354;SDS011;8287;51.644;8.494;2023-04-03T09:38:28;3.00;;;0.80;;
16354;SDS011;8287;51.644;8.494;2023-04-03T09:41:02;1.67;;;0.60;;
16354;SDS011;8287;51.644;8.494;2023-04-03T09:43:33;2.40;;;0.98;;
16354;SDS011;8287;51.644;8.494;2023-04-03T09:48:49;2.58;;;0.63;;
16354;SDS011;8287;51.644;8.494;2023-04-03T09:51:17;2.88;;;0.80;;
16354;SDS011;8287;51.644;8.494;2023-04-03T09:53:44;2.90;;;0.90;;
16354;SDS011;8287;51.644;8.494;2023-04-03T09:56:18;3.10;;;0.98;;
16354;SDS011;8287;51.644;8.494;2023-04-03T09:58:49;1.38;;;0.80;;
16354;SDS011;8287;51.644;8.494;2023-04-03T10:01:23;3.20;;;0.80;;
16354;SDS011;8287;51.644;8.494;2023-04-03T10:04:03;3.45;;;1.00;;
16354;SDS011;8287;51.644;8.494;2023-04-03T10:06:32;1.83;;;0.80;;
16354;SDS011;8287;51.644;8.494;2023-04-03T10:09:05;1.60;;;0.73;;
16354;SDS011;8287;51.644;8.494;2023-04-03T10:11:44;2.42;;;0.50;;
16354;SDS011;8287;51.644;8.494;2023-04-03T10:14:25;1.38;;;0.80;;
16354;SDS011;8287;51.644;8.494;2023-04-03T10:16:53;1.83;;;0.90;;
16354;SDS011;8287;51.644;8.494;2023-04-03T10:19:32;1.35;;;0.68;;
16354;SDS011;8287;51.644;8.494;2023-04-03T10:22:03;3.53;;;0.98;;
16354;SDS011;8287;51.644;8.494;2023-04-03T10:24:43;6.28;;;0.80;;
16354;SDS011;8287;51.644;8.494;2023-04-03T10:27:18;2.15;;;1.00;;
16354;SDS011;8287;51.644;8.494;2023-04-03T10:29:59;1.50;;;1.02;;
16354;SDS011;8287;51.644;8.494;2023-04-03T10:32:42;1.88;;;1.02;;
16354;SDS011;8287;51.644;8.494;2023-04-03T10:35:18;1.40;;;0.98;;
16354;SDS011;8287;51.644;8.494;2023-04-03T10:37:53;3.55;;;0.75;;
16354;SDS011;8287;51.644;8.494;2023-04-03T10:40:30;1.88;;;0.70;;
16354;SDS011;8287;51.644;8.494;2023-04-03T10:43:04;1.05;;;0.80;;
16354;SDS011;8287;51.644;8.494;2023-04-03T10:45:49;2.30;;;1.10;;
16354;SDS011;8287;51.644;8.494;2023-04-03T10:48:24;1.70;;;0.80;;
16354;SDS011;8287;51.644;8.494;2023-04-03T10:51:07;3.78;;;0.75;;
16354;SDS011;8287;51.644;8.494;2023-04-03T10:53:43;2.78;;;0.80;;
16354;SDS011;8287;51.644;8.494;2023-04-03T10:56:15;0.77;;;0.77;;
16354;SDS011;8287;51.644;8.494;2023-04-03T10:58:51;1.25;;;0.65;;
16354;SDS011;8287;51.644;8.494;2023-04-03T11:01:24;2.53;;;0.90;;
16354;SDS011;8287;51.644;8.494;2023-04-03T11:03:57;2.90;;;1.20;;
16354;SDS011;8287;51.644;8.494;2023-04-03T11:06:26;2.25;;;0.73;;
16354;SDS011;8287;51.644;8.494;2023-04-03T11:09:01;1.52;;;0.90;;
16354;SDS011;8287;51.644;8.494;2023-04-03T11:11:32;2.97;;;1.17;;
16354;SDS011;8287;51.644;8.494;2023-04-03T11:14:02;4.15;;;1.10;;
16354;SDS011;8287;51.644;8.494;2023-04-03T11:16:33;2.30;;;0.75;;
16354;SDS011;8287;51.644;8.494;2023-04-03T11:19:08;1.90;;;0.88;;
16354;SDS011;8287;51.644;8.494;2023-04-03T11:21:41;1.85;;;0.80;;
16354;SDS011;8287;51.644;8.494;2023-04-03T11:24:14;2.63;;;0.77;;
16354;SDS011;8287;51.644;8.494;2023-04-03T11:26:46;1.20;;;0.60;;
16354;SDS011;8287;51.644;8.494;2023-04-03T11:29:18;1.98;;;0.88;;
16354;SDS011;8287;51.644;8.494;2023-04-03T11:31:58;2.08;;;1.00;;
16354;SDS011;8287;51.644;8.494;2023-04-03T11:34:36;2.20;;;0.75;;
16354;SDS011;8287;51.644;8.494;2023-04-03T11:37:11;3.15;;;0.85;;
16354;SDS011;8287;51.644;8.494;2023-04-03T11:39:46;5.78;;;1.02;;
16354;SDS011;8287;51.644;8.494;2023-04-03T11:42:20;2.78;;;0.80;;
16354;SDS011;8287;51.644;8.494;2023-04-03T11:45:00;1.10;;;0.70;;
16354;SDS011;8287;51.644;8.494;2023-04-03T11:47:59;3.55;;;0.52;;
16354;SDS011;8287;51.644;8.494;2023-04-03T11:50:37;2.65;;;1.02;;
16354;SDS011;8287;51.644;8.494;2023-04-03T11:53:26;2.53;;;0.88;;
16354;SDS011;8287;51.644;8.494;2023-04-03T11:55:56;1.15;;;0.55;;
16354;SDS011;8287;51.644;8.494;2023-04-03T11:58:25;0.70;;;0.70;;
16354;SDS011;8287;51.644;8.494;2023-04-03T12:00:57;2.20;;;0.75;;
16354;SDS011;8287;51.644;8.494;2023-04-03T12:03:35;1.67;;;0.88;;
16354;SDS011;8287;51.644;8.494;2023-04-03T12:06:43;1.88;;;0.73;;
16354;SDS011;8287;51.644;8.494;2023-04-03T12:09:23;2.65;;;1.10;;
16354;SDS011;8287;51.644;8.494;2023-04-03T12:15:21;4.35;;;1.23;;
16354;SDS011;8287;51.644;8.494;2023-04-03T12:17:50;2.55;;;1.00;;
16354;SDS011;8287;51.644;8.494;2023-04-03T12:23:26;1.15;;;0.85;;
16354;SDS011;8287;51.644;8.494;2023-04-03T12:25:59;3.65;;;0.95;;
16354;SDS011;8287;51.644;8.494;2023-04-03T12:28:38;1.23;;;1.10;;
16354;SDS011;8287;51.644;8.494;2023-04-03T12:31:05;1.13;;;0.80;;
16354;SDS011;8287;51.644;8.494;2023-04-03T12:33:38;2.03;;;0.98;;
16354;SDS011;8287;51.644;8.494;2023-04-03T12:36:26;2.30;;;1.08;;
16354;SDS011;8287;51.644;8.494;2023-04-03T12:39:01;7.70;;;1.45;;
16354;SDS011;8287;51.644;8.494;2023-04-03T12:41:38;4.88;;;1.02;;
16354;SDS011;8287;51.644;8.494;2023-04-03T12:44:18;1.85;;;0.70;;
16354;SDS011;8287;51.644;8.494;2023-04-03T12:47:07;2.65;;;1.00;;
16354;SDS011;8287;51.644;8.494;2023-04-03T12:49:47;1.52;;;1.00;;
16354;SDS011;8287;51.644;8.494;2023-04-03T12:52:18;1.70;;;1.00;;
16354;SDS011;8287;51.644;8.494;2023-04-03T12:54:50;1.85;;;0.80;;
16354;SDS011;8287;51.644;8.494;2023-04-03T12:57:18;2.88;;;0.90;;
16354;SDS011;8287;51.644;8.494;2023-04-03T12:59:46;1.85;;;0.90;;
16354;SDS011;8287;51.644;8.494;2023-04-03T13:02:17;7.32;;;1.20;;
16354;SDS011;8287;51.644;8.494;2023-04-03T13:04:49;2.47;;;1.25;;
16354;SDS011;8287;51.644;8.494;2023-04-03T13:07:25;1.42;;;1.13;;
16354;SDS011;8287;51.644;8.494;2023-04-03T13:10:02;2.55;;;0.82;;
16354;SDS011;8287;51.644;8.494;2023-04-03T13:12:30;3.65;;;1.08;;
16354;SDS011;8287;51.644;8.494;2023-04-03T13:14:59;3.15;;;1.15;;
16354;SDS011;8287;51.644;8.494;2023-04-03T13:17:29;1.58;;;0.82;;
16354;SDS011;8287;51.644;8.494;2023-04-03T13:20:06;1.80;;;1.00;;
16354;SDS011;8287;51.644;8.494;2023-04-03T13:22:38;1.50;;;0.70;;
16354;SDS011;8287;51.644;8.494;2023-04-03T13:25:09;3.45;;;1.48;;
16354;SDS011;8287;51.644;8.494;2023-04-03T13:27:39;1.83;;;0.60;;
16354;SDS011;8287;51.644;8.494;2023-04-03T13:30:17;0.98;;;0.73;;
16354;SDS011;8287;51.644;8.494;2023-04-03T13:32:47;0.93;;;0.70;;
16354;SDS011;8287;51.644;8.494;2023-04-03T13:38:22;3.50;;;1.40;;
16354;SDS011;8287;51.644;8.494;2023-04-03T13:40:52;1.52;;;1.00;;
16354;SDS011;8287;51.644;8.494;2023-04-03T13:43:21;2.53;;;1.25;;
16354;SDS011;8287;51.644;8.494;2023-04-03T13:45:54;3.25;;;0.75;;
16354;SDS011;8287;51.644;8.494;2023-04-03T13:48:35;2.10;;;1.33;;
16354;SDS011;8287;51.644;8.494;2023-04-03T13:51:17;1.38;;;0.88;;
16354;SDS011;8287;51.644;8.494;2023-04-03T13:53:48;1.85;;;1.35;;
16354;SDS011;8287;51.644;8.494;2023-04-03T13:56:21;2.13;;;0.80;;
16354;SDS011;8287;51.644;8.494;2023-04-03T13:58:56;2.95;;;0.98;;
16354;SDS011;8287;51.644;8.494;2023-04-03T14:04:15;1.60;;;0.85;;
16354;SDS011;8287;51.644;8.494;2023-04-03T14:06:45;2.38;;;1.00;;
16354;SDS011;8287;51.644;8.494;2023-04-03T14:09:17;1.77;;;0.90;;
16354;SDS011;8287;51.644;8.494;2023-04-03T14:11:48;2.33;;;1.00;;
16354;SDS011;8287;51.644;8.494;2023-04-03T14:14:17;1.05;;;0.65;;
16354;SDS011;8287;51.644;8.494;2023-04-03T14:16:46;2.67;;;1.08;;
16354;SDS011;8287;51.644;8.494;2023-04-03T14:19:20;1.67;;;1.00;;
16354;SDS011;8287;51.644;8.494;2023-04-03T14:21:48;1.75;;;0.90;;
16354;SDS011;8287;51.644;8.494;2023-04-03T14:24:17;1.13;;;0.98;;
16354;SDS011;8287;51.644;8.494;2023-04-03T14:26:45;1.05;;;0.77;;
16354;SDS011;8287;51.644;8.494;2023-04-03T14:29:12;3.08;;;1.13;;
16354;SDS011;8287;51.644;8.494;2023-04-03T14:31:39;1.52;;;0.98;;
16354;SDS011;8287;51.644;8.494;2023-04-03T14:34:07;1.33;;;0.93;;
16354;SDS011;8287;51.644;8.494;2023-04-03T14:36:35;1.52;;;0.55;;
16354;SDS011;8287;51.644;8.494;2023-04-03T14:39:02;1.30;;;0.50;;
16354;SDS011;8287;51.644;8.494;2023-04-03T14:41:31;1.25;;;1.00;;
16354;SDS011;8287;51.644;8.494;2023-04-03T14:43:58;2.13;;;1.10;;
16354;SDS011;8287;51.644;8.494;2023-04-03T14:46:25;1.40;;;0.77;;
16354;SDS011;8287;51.644;8.494;2023-04-03T14:48:55;2.88;;;1.08;;
16354;SDS011;8287;51.644;8.494;2023-04-03T14:51:22;1.48;;;0.90;;
16354;SDS011;8287;51.644;8.494;2023-04-03T14:53:49;1.88;;;1.00;;
16354;SDS011;8287;51.644;8.494;2023-04-03T14:56:19;1.20;;;1.10;;
16354;SDS011;8287;51.644;8.494;2023-04-03T14:58:52;1.58;;;1.00;;
16354;SDS011;8287;51.644;8.494;2023-04-03T15:01:21;2.33;;;0.80;;
16354;SDS011;8287;51.644;8.494;2023-04-03T15:03:50;1.13;;;0.73;;
16354;SDS011;8287;51.644;8.494;2023-04-03T15:06:16;1.52;;;0.85;;
16354;SDS011;8287;51.644;8.494;2023-04-03T15:08:43;1.50;;;1.02;;
16354;SDS011;8287;51.644;8.494;2023-04-03T15:11:11;1.75;;;1.20;;
16354;SDS011;8287;51.644;8.494;2023-04-03T15:13:52;2.30;;;1.15;;
16354;SDS011;8287;51.644;8.494;2023-04-03T15:16:19;3.35;;;1.08;;
16354;SDS011;8287;51.644;8.494;2023-04-03T15:18:46;3.60;;;1.98;;
16354;SDS011;8287;51.644;8.494;2023-04-03T15:21:13;3.63;;;1.50;;
16354;SDS011;8287;51.644;8.494;2023-04-03T15:23:40;2.13;;;1.05;;
16354;SDS011;8287;51.644;8.494;2023-04-03T15:26:07;2.47;;;1.17;;
16354;SDS011;8287;51.644;8.494;2023-04-03T15:28:35;3.58;;;1.92;;
16354;SDS011;8287;51.644;8.494;2023-04-03T15:31:05;3.35;;;0.80;;
16354;SDS011;8287;51.644;8.494;2023-04-03T15:33:33;3.40;;;1.50;;
16354;SDS011;8287;51.644;8.494;2023-04-03T15:36:01;1.00;;;0.70;;